createdAt,value
2019-01-13T00:00:11.727Z,4.27
2019-01-13T00:02:39.245Z,3.60
2019-01-13T00:05:07.237Z,3.87
2019-01-13T00:07:35.949Z,4.20
2019-01-13T00:10:04.524Z,3.90
2019-01-13T00:12:35.516Z,4.10
2019-01-13T00:15:01.460Z,3.80
2019-01-13T00:17:28.438Z,4.00
2019-01-13T00:19:56.215Z,3.97
2019-01-13T00:22:24.168Z,4.00
2019-01-13T00:24:51.909Z,3.93
2019-01-13T00:27:19.261Z,3.80
2019-01-13T00:29:46.572Z,3.60
2019-01-13T00:32:13.971Z,3.90
2019-01-13T00:34:41.287Z,6.53
2019-01-13T00:37:08.626Z,4.60
2019-01-13T00:39:36.889Z,4.33
2019-01-13T00:42:04.217Z,4.17
2019-01-13T00:44:31.496Z,3.90
2019-01-13T00:46:59.132Z,3.73
2019-01-13T00:49:26.103Z,3.60
2019-01-13T00:51:55.853Z,3.77
2019-01-13T00:54:23.329Z,4.00
2019-01-13T00:56:51.458Z,3.70
2019-01-13T00:59:18.640Z,3.60
2019-01-13T01:01:47.640Z,3.63
2019-01-13T01:04:15.348Z,4.07
2019-01-13T01:06:42.961Z,3.83
2019-01-13T01:09:11.264Z,3.50
2019-01-13T01:11:38.972Z,3.80
2019-01-13T01:14:06.763Z,3.80
2019-01-13T01:16:53.333Z,4.40
2019-01-13T01:19:21.911Z,3.70
2019-01-13T01:21:51.303Z,4.30
2019-01-13T01:24:18.641Z,4.40
2019-01-13T01:26:46.204Z,4.30
2019-01-13T01:29:13.601Z,4.63
2019-01-13T01:31:41.145Z,4.63
2019-01-13T01:34:08.510Z,4.80
2019-01-13T01:36:36.081Z,4.70
2019-01-13T01:39:06.344Z,4.33
2019-01-13T01:41:33.688Z,4.50
2019-01-13T01:44:00.812Z,4.40
2019-01-13T01:46:28.451Z,4.70
2019-01-13T01:48:56.416Z,4.07
2019-01-13T01:51:23.588Z,4.10
2019-01-13T01:53:51.237Z,4.60
2019-01-13T01:56:18.788Z,4.80
2019-01-13T01:58:46.763Z,4.10
2019-01-13T02:01:14.653Z,4.20
2019-01-13T02:03:42.743Z,4.87
2019-01-13T02:06:10.325Z,4.63
2019-01-13T02:08:37.259Z,4.50
2019-01-13T02:11:05.680Z,5.20
2019-01-13T02:13:32.684Z,4.77
2019-01-13T02:15:59.825Z,4.90
2019-01-13T02:18:27.240Z,5.33
2019-01-13T02:20:55.116Z,5.30
2019-01-13T02:23:22.973Z,5.60
2019-01-13T02:25:50.648Z,5.40
2019-01-13T02:28:18.091Z,5.47
2019-01-13T02:30:49.242Z,5.63
2019-01-13T02:33:14.901Z,6.10
2019-01-13T02:35:42.093Z,6.17
2019-01-13T02:38:09.222Z,6.10
2019-01-13T02:40:36.260Z,6.00
2019-01-13T02:43:03.765Z,5.80
2019-01-13T02:45:30.951Z,5.17
2019-01-13T02:47:58.549Z,5.80
2019-01-13T02:50:25.608Z,5.87
2019-01-13T02:52:52.977Z,5.37
2019-01-13T02:55:20.636Z,5.50
2019-01-13T02:57:48.144Z,6.07
2019-01-13T03:00:24.053Z,6.07
2019-01-13T03:02:51.412Z,5.10
2019-01-13T03:05:19.053Z,5.07
2019-01-13T03:07:46.778Z,6.00
2019-01-13T03:10:17.165Z,5.87
2019-01-13T03:12:44.617Z,5.63
2019-01-13T03:15:19.669Z,5.47
2019-01-13T03:17:42.736Z,5.53
2019-01-13T03:20:10.145Z,5.90
2019-01-13T03:22:38.041Z,5.23
2019-01-13T03:25:08.025Z,5.17
2019-01-13T03:27:35.529Z,5.30
2019-01-13T03:30:04.118Z,5.57
2019-01-13T03:32:33.935Z,5.00
2019-01-13T03:35:01.245Z,5.07
2019-01-13T03:37:28.713Z,5.17
2019-01-13T03:39:56.001Z,5.30
2019-01-13T03:42:23.340Z,5.33
2019-01-13T03:44:50.908Z,5.67
2019-01-13T03:47:18.566Z,5.20
2019-01-13T03:49:45.706Z,5.33
2019-01-13T03:52:15.276Z,4.60
2019-01-13T03:54:42.738Z,5.53
2019-01-13T03:57:10.462Z,5.50
2019-01-13T03:59:38.128Z,5.90
2019-01-13T04:02:05.382Z,5.47
2019-01-13T04:04:33.412Z,5.77
2019-01-13T04:07:00.918Z,5.63
2019-01-13T04:09:28.449Z,5.90
2019-01-13T04:11:55.747Z,6.60
2019-01-13T04:14:22.745Z,5.83
2019-01-13T04:16:50.391Z,5.80
2019-01-13T04:19:18.249Z,6.00
2019-01-13T04:21:46.336Z,6.57
2019-01-13T04:24:15.913Z,6.97
2019-01-13T04:26:43.700Z,6.87
2019-01-13T04:29:11.502Z,6.50
2019-01-13T04:31:38.978Z,7.60
2019-01-13T04:34:06.184Z,7.00
2019-01-13T04:36:33.845Z,6.87
2019-01-13T04:39:03.080Z,7.00
2019-01-13T04:41:32.282Z,7.00
2019-01-13T04:43:59.956Z,6.73
2019-01-13T04:46:27.206Z,6.90
2019-01-13T04:48:54.871Z,6.87
2019-01-13T04:51:22.969Z,6.50
2019-01-13T04:53:50.202Z,7.27
2019-01-13T04:56:17.828Z,7.07
2019-01-13T04:58:45.107Z,7.57
2019-01-13T05:01:12.170Z,6.60
2019-01-13T05:03:39.544Z,7.03
2019-01-13T05:06:06.885Z,7.43
2019-01-13T05:08:34.544Z,6.77
2019-01-13T05:11:02.017Z,7.53
2019-01-13T05:13:29.509Z,7.00
2019-01-13T05:15:57.466Z,7.73
2019-01-13T05:18:25.320Z,6.87
2019-01-13T05:20:52.405Z,6.83
2019-01-13T05:23:21.591Z,6.77
2019-01-13T05:25:50.678Z,6.43
2019-01-13T05:28:17.988Z,6.53
2019-01-13T05:30:45.383Z,6.50
2019-01-13T05:33:13.134Z,7.00
2019-01-13T05:35:40.810Z,6.33
2019-01-13T05:38:07.911Z,7.90
2019-01-13T05:40:34.873Z,7.30
2019-01-13T05:43:01.920Z,7.10
2019-01-13T05:45:29.422Z,7.07
2019-01-13T05:47:56.767Z,7.90
2019-01-13T05:50:23.921Z,8.67
2019-01-13T05:52:52.960Z,7.07
2019-01-13T05:55:20.673Z,6.73
2019-01-13T05:57:49.881Z,6.53
2019-01-13T06:00:19.499Z,6.80
2019-01-13T06:02:47.338Z,6.47
2019-01-13T06:05:16.692Z,6.27
2019-01-13T06:07:44.111Z,6.43
2019-01-13T06:10:12.527Z,6.23
2019-01-13T06:12:40.228Z,5.87
2019-01-13T06:15:09.857Z,5.93
2019-01-13T06:17:37.517Z,5.50
2019-01-13T06:20:08.260Z,5.70
2019-01-13T06:22:35.217Z,5.80
2019-01-13T06:25:02.409Z,5.63
2019-01-13T06:30:15.826Z,6.93
2019-01-13T06:32:44.896Z,6.73
2019-01-13T06:35:12.240Z,6.83
2019-01-13T06:37:39.588Z,6.70
2019-01-13T06:40:09.727Z,8.00
2019-01-13T06:42:37.094Z,7.60
2019-01-13T06:45:06.872Z,7.30
2019-01-13T06:47:34.277Z,7.20
2019-01-13T06:50:01.768Z,7.87
2019-01-13T06:52:29.580Z,6.87
2019-01-13T06:54:57.670Z,7.97
2019-01-13T06:57:24.836Z,6.90
2019-01-13T06:59:51.800Z,8.00
2019-01-13T07:02:19.365Z,8.23
2019-01-13T07:04:47.401Z,7.20
2019-01-13T07:07:14.428Z,7.20
2019-01-13T07:09:41.992Z,6.97
2019-01-13T07:12:09.326Z,7.30
2019-01-13T07:14:36.952Z,6.30
2019-01-13T07:17:04.465Z,6.00
2019-01-13T07:19:31.608Z,6.27
2019-01-13T07:21:58.803Z,5.33
2019-01-13T07:24:26.186Z,5.50
2019-01-13T07:26:53.521Z,5.13
2019-01-13T07:29:21.035Z,5.43
2019-01-13T07:31:48.284Z,5.43
2019-01-13T07:34:16.164Z,4.30
2019-01-13T07:36:43.289Z,4.60
2019-01-13T07:39:10.480Z,4.80
2019-01-13T07:41:37.687Z,3.90
2019-01-13T07:44:05.161Z,3.90
2019-01-13T07:46:33.062Z,3.60
2019-01-13T07:49:00.116Z,4.40
2019-01-13T07:51:27.621Z,3.57
2019-01-13T07:53:54.668Z,3.10
2019-01-13T07:56:22.024Z,3.33
2019-01-13T07:58:50.110Z,3.20
2019-01-13T08:01:17.462Z,3.00
2019-01-13T08:03:44.728Z,3.10
2019-01-13T08:06:11.748Z,3.07
2019-01-13T08:08:38.856Z,3.00
2019-01-13T08:11:06.649Z,3.00
2019-01-13T08:13:34.959Z,3.00
2019-01-13T08:16:02.177Z,3.57
2019-01-13T08:18:29.601Z,3.73
2019-01-13T08:20:57.120Z,3.03
2019-01-13T08:23:24.281Z,3.30
2019-01-13T08:25:51.632Z,3.53
2019-01-13T08:28:18.900Z,3.50
2019-01-13T08:30:46.272Z,5.00
2019-01-13T08:33:13.999Z,3.10
2019-01-13T08:35:41.506Z,3.17
2019-01-13T08:38:09.454Z,3.20
2019-01-13T08:40:37.308Z,3.17
2019-01-13T08:43:04.759Z,3.03
2019-01-13T08:45:32.113Z,2.93
2019-01-13T08:47:59.594Z,2.93
2019-01-13T08:50:27.792Z,3.00
2019-01-13T08:52:55.813Z,2.70
2019-01-13T08:55:25.242Z,2.47
2019-01-13T08:57:53.005Z,2.03
2019-01-13T09:00:28.813Z,2.10
2019-01-13T09:02:56.876Z,1.77
2019-01-13T09:05:24.880Z,1.83
2019-01-13T09:07:52.573Z,1.40
2019-01-13T09:10:20.400Z,1.70
2019-01-13T09:12:48.828Z,1.50
2019-01-13T09:15:18.074Z,1.63
2019-01-13T09:17:45.682Z,1.40
2019-01-13T09:20:15.594Z,1.43
2019-01-13T09:22:43.328Z,1.43
2019-01-13T09:25:11.467Z,1.70
2019-01-13T09:27:39.036Z,1.60
2019-01-13T09:30:10.371Z,1.60
2019-01-13T09:32:39.490Z,1.50
2019-01-13T09:35:07.269Z,1.30
2019-01-13T09:37:34.764Z,1.80
2019-01-13T09:40:02.184Z,1.60
2019-01-13T09:42:30.249Z,1.30
2019-01-13T09:44:57.636Z,1.40
2019-01-13T09:47:25.009Z,1.30
2019-01-13T09:49:52.380Z,1.30
2019-01-13T09:52:20.100Z,1.30
2019-01-13T09:54:47.241Z,1.60
2019-01-13T09:57:14.900Z,1.50
2019-01-13T09:59:42.193Z,1.50
2019-01-13T10:02:09.266Z,1.57
2019-01-13T10:04:36.561Z,1.30
2019-01-13T10:07:04.232Z,1.23
2019-01-13T10:09:31.381Z,1.53
2019-01-13T10:11:58.621Z,1.30
2019-01-13T10:14:26.252Z,1.60
2019-01-13T10:16:53.599Z,1.40
2019-01-13T10:19:20.845Z,1.43
2019-01-13T10:21:48.249Z,1.43
2019-01-13T10:24:15.252Z,1.20
2019-01-13T10:26:42.822Z,1.60
2019-01-13T10:29:09.876Z,1.80
2019-01-13T10:31:37.298Z,1.50
2019-01-13T10:34:05.185Z,1.47
2019-01-13T10:36:32.961Z,1.40
2019-01-13T10:39:00.472Z,2.70
2019-01-13T10:41:27.973Z,1.50
2019-01-13T10:43:55.531Z,1.50
2019-01-13T10:46:23.132Z,1.50
2019-01-13T10:48:52.361Z,1.60
2019-01-13T10:51:20.055Z,1.70
2019-01-13T10:53:47.164Z,1.80
2019-01-13T10:56:14.973Z,1.73
2019-01-13T10:58:42.678Z,1.60
2019-01-13T11:01:10.212Z,1.50
2019-01-13T11:03:37.605Z,1.60
2019-01-13T11:06:04.803Z,1.60
2019-01-13T11:08:32.501Z,1.50
2019-01-13T11:11:00.257Z,1.70
2019-01-13T11:13:27.736Z,1.60
2019-01-13T11:15:55.301Z,1.30
2019-01-13T11:18:22.872Z,1.50
2019-01-13T11:20:50.296Z,1.63
2019-01-13T11:23:18.276Z,1.60
2019-01-13T11:25:45.680Z,1.67
2019-01-13T11:28:14.173Z,2.10
2019-01-13T11:30:41.569Z,1.60
2019-01-13T11:33:09.572Z,1.70
2019-01-13T11:35:37.495Z,1.70
2019-01-13T11:38:04.796Z,1.80
2019-01-13T11:40:33.056Z,1.80
2019-01-13T11:43:00.321Z,5.13
2019-01-13T11:45:29.280Z,3.90
2019-01-13T11:47:56.916Z,3.47
2019-01-13T11:50:25.869Z,2.63
2019-01-13T11:52:53.510Z,2.10
2019-01-13T11:57:14.058Z,1.60
2019-01-13T11:59:42.812Z,1.53
2019-01-13T12:02:10.556Z,1.60
2019-01-13T12:04:38.340Z,1.67
2019-01-13T12:07:06.192Z,1.70
2019-01-13T12:09:33.197Z,1.70
2019-01-13T12:12:00.972Z,2.00
2019-01-13T12:14:29.081Z,1.63
2019-01-13T12:16:57.527Z,1.33
2019-01-13T12:19:24.604Z,1.80
2019-01-13T12:21:51.988Z,1.30
2019-01-13T12:24:19.568Z,1.80
2019-01-13T12:26:46.841Z,1.40
2019-01-13T12:29:14.162Z,1.23
2019-01-13T12:31:41.899Z,1.40
2019-01-13T12:34:09.960Z,1.30
2019-01-13T12:36:37.308Z,4.10
2019-01-13T12:39:08.689Z,1.50
2019-01-13T12:41:37.965Z,1.20
2019-01-13T12:44:05.405Z,1.53
2019-01-13T12:46:33.292Z,1.10
2019-01-13T12:49:00.950Z,1.03
2019-01-13T12:51:31.414Z,1.50
2019-01-13T12:53:59.146Z,1.13
2019-01-13T12:56:27.108Z,1.40
2019-01-13T12:58:54.681Z,1.20
2019-01-13T13:01:22.803Z,1.40
2019-01-13T13:03:51.051Z,1.40
2019-01-13T13:06:19.141Z,1.40
2019-01-13T13:08:47.273Z,1.50
2019-01-13T13:11:14.428Z,1.30
2019-01-13T13:13:42.289Z,1.30
2019-01-13T13:16:09.670Z,1.30
2019-01-13T13:18:36.681Z,1.40
2019-01-13T13:21:04.294Z,1.20
2019-01-13T13:23:33.371Z,1.20
2019-01-13T13:26:03.068Z,1.30
2019-01-13T13:28:30.720Z,1.30
2019-01-13T13:30:58.272Z,1.50
2019-01-13T13:33:25.816Z,1.70
2019-01-13T13:35:53.629Z,1.50
2019-01-13T13:38:21.791Z,1.50
2019-01-13T13:40:49.269Z,1.50
2019-01-13T13:43:16.782Z,1.60
2019-01-13T13:45:46.292Z,1.70
2019-01-13T13:48:13.606Z,1.60
2019-01-13T13:50:41.417Z,1.50
2019-01-13T13:53:09.732Z,4.43
2019-01-13T13:55:37.140Z,2.57
2019-01-13T13:58:05.667Z,2.40
2019-01-13T14:00:35.541Z,2.50
2019-01-13T14:03:03.301Z,2.07
2019-01-13T14:05:30.988Z,1.70
2019-01-13T14:07:58.436Z,1.80
2019-01-13T14:10:28.952Z,1.47
2019-01-13T14:12:56.059Z,1.60
2019-01-13T14:15:23.569Z,1.77
2019-01-13T14:17:51.235Z,1.87
2019-01-13T14:20:18.726Z,2.00
2019-01-13T14:22:47.294Z,2.10
2019-01-13T14:25:15.300Z,1.70
2019-01-13T14:27:42.956Z,2.03
2019-01-13T14:30:14.689Z,2.03
2019-01-13T14:32:42.340Z,2.20
2019-01-13T14:35:09.948Z,2.27
2019-01-13T14:37:37.963Z,2.03
2019-01-13T14:40:08.585Z,2.00
2019-01-13T14:42:36.742Z,1.90
2019-01-13T14:45:06.903Z,2.00
2019-01-13T14:47:34.447Z,1.87
2019-01-13T14:50:01.610Z,1.83
2019-01-13T14:52:29.033Z,1.90
2019-01-13T14:54:56.455Z,2.00
2019-01-13T14:57:23.604Z,1.83
2019-01-13T14:59:51.226Z,1.90
2019-01-13T15:02:18.905Z,1.60
2019-01-13T15:04:46.545Z,2.00
2019-01-13T15:07:13.900Z,2.07
2019-01-13T15:09:41.828Z,1.90
2019-01-13T15:12:09.120Z,1.87
2019-01-13T15:14:37.041Z,2.33
2019-01-13T15:17:04.568Z,2.13
2019-01-13T15:19:32.401Z,1.90
2019-01-13T15:21:59.932Z,1.97
2019-01-13T15:24:27.444Z,1.90
2019-01-13T15:26:54.892Z,2.20
2019-01-13T15:29:22.865Z,3.33
2019-01-13T15:31:53.224Z,4.20
2019-01-13T15:34:20.556Z,2.20
2019-01-13T15:36:47.488Z,2.07
2019-01-13T15:39:16.209Z,2.00
2019-01-13T15:41:43.408Z,1.80
2019-01-13T15:44:11.874Z,1.70
2019-01-13T15:46:39.385Z,1.80
2019-01-13T15:49:07.040Z,1.70
2019-01-13T15:51:34.647Z,1.70
2019-01-13T15:54:03.813Z,1.93
2019-01-13T15:56:31.101Z,1.60
2019-01-13T15:58:58.537Z,2.00
2019-01-13T16:01:26.412Z,1.90
2019-01-13T16:03:55.105Z,1.60
2019-01-13T16:06:22.704Z,1.80
2019-01-13T16:08:50.144Z,1.90
2019-01-13T16:11:17.689Z,2.00
2019-01-13T16:13:44.832Z,2.50
2019-01-13T16:16:12.128Z,2.30
2019-01-13T16:18:39.235Z,1.80
2019-01-13T16:21:08.178Z,1.60
2019-01-13T16:23:36.452Z,1.73
2019-01-13T16:26:04.336Z,1.77
2019-01-13T16:28:31.525Z,1.60
2019-01-13T16:30:59.141Z,1.80
2019-01-13T16:33:27.251Z,1.60
2019-01-13T16:35:54.280Z,1.60
2019-01-13T16:38:21.488Z,1.90
2019-01-13T16:40:48.964Z,2.10
2019-01-13T16:43:16.300Z,1.93
2019-01-13T16:45:43.568Z,1.47
2019-01-13T16:48:11.534Z,1.60
2019-01-13T16:50:38.688Z,1.30
2019-01-13T16:53:06.429Z,1.20
2019-01-13T16:55:33.828Z,1.10
2019-01-13T16:58:01.052Z,1.20
2019-01-13T17:00:29.958Z,0.97
2019-01-13T17:02:57.835Z,1.07
2019-01-13T17:05:25.784Z,1.10
2019-01-13T17:07:53.261Z,1.00
2019-01-13T17:10:22.365Z,1.07
2019-01-13T17:12:49.910Z,1.10
2019-01-13T17:15:20.836Z,1.20
2019-01-13T17:17:48.208Z,1.20
2019-01-13T17:20:17.337Z,1.70
2019-01-13T17:22:44.633Z,1.10
2019-01-13T17:25:14.381Z,1.07
2019-01-13T17:27:42.116Z,1.10
2019-01-13T17:30:13.764Z,1.07
2019-01-13T17:32:41.380Z,1.00
2019-01-13T17:35:08.749Z,1.30
2019-01-13T17:37:35.880Z,1.00
2019-01-13T17:40:04.642Z,0.97
2019-01-13T17:42:32.401Z,1.10
2019-01-13T17:45:00.368Z,1.00
2019-01-13T17:47:27.901Z,1.03
2019-01-13T17:49:54.869Z,1.17
2019-01-13T17:52:22.431Z,4.27
2019-01-13T17:54:49.885Z,1.03
2019-01-13T17:57:17.454Z,0.90
2019-01-13T17:59:45.016Z,0.70
2019-01-13T18:02:13.015Z,1.20
2019-01-13T18:04:43.322Z,0.80
2019-01-13T18:07:09.796Z,0.70
2019-01-13T18:09:41.853Z,0.70
2019-01-13T18:12:09.320Z,0.80
2019-01-13T18:14:36.647Z,1.10
2019-01-13T18:17:06.536Z,0.87
2019-01-13T18:19:34.093Z,0.93
2019-01-13T18:22:01.524Z,0.60
2019-01-13T18:24:28.872Z,0.80
2019-01-13T18:26:56.340Z,0.83
2019-01-13T18:29:23.664Z,0.60
2019-01-13T18:31:51.380Z,0.93
2019-01-13T18:34:19.449Z,0.80
2019-01-13T18:36:46.781Z,0.60
2019-01-13T18:39:14.168Z,1.00
2019-01-13T18:41:41.520Z,0.63
2019-01-13T18:44:09.385Z,0.80
2019-01-13T18:46:36.848Z,1.10
2019-01-13T18:49:04.205Z,1.20
2019-01-13T18:51:31.562Z,1.00
2019-01-13T18:53:58.901Z,0.87
2019-01-13T18:56:28.520Z,1.30
2019-01-13T18:58:55.541Z,1.00
2019-01-13T19:01:22.764Z,0.97
2019-01-13T19:03:50.420Z,1.00
2019-01-13T19:06:18.368Z,0.90
2019-01-13T19:08:45.568Z,0.90
2019-01-13T19:11:22.561Z,1.50
2019-01-13T19:14:05.610Z,1.13
2019-01-13T19:16:38.796Z,1.20
2019-01-13T19:19:06.226Z,1.10
2019-01-13T19:21:33.829Z,1.20
2019-01-13T19:24:02.323Z,1.10
2019-01-13T19:26:29.520Z,1.00
2019-01-13T19:28:57.239Z,1.20
2019-01-13T19:31:24.868Z,1.70
2019-01-13T19:33:52.730Z,1.20
2019-01-13T19:36:19.833Z,1.27
2019-01-13T19:38:46.772Z,1.30
2019-01-13T19:41:14.432Z,1.40
2019-01-13T19:43:41.644Z,1.10
2019-01-13T19:46:10.076Z,1.20
2019-01-13T19:48:37.816Z,1.50
2019-01-13T19:51:04.941Z,1.57
2019-01-13T19:53:31.865Z,1.43
2019-01-13T19:55:59.316Z,2.27
2019-01-13T19:58:26.508Z,1.90
2019-01-13T20:00:54.341Z,1.90
2019-01-13T20:03:21.739Z,1.90
2019-01-13T20:05:49.324Z,1.63
2019-01-13T20:08:16.779Z,1.87
2019-01-13T20:10:44.606Z,1.73
2019-01-13T20:13:12.172Z,1.80
2019-01-13T20:15:39.154Z,1.97
2019-01-13T20:18:06.968Z,2.10
2019-01-13T20:20:34.144Z,1.90
2019-01-13T20:23:01.519Z,2.53
2019-01-13T20:25:29.132Z,2.27
2019-01-13T20:27:56.700Z,2.23
2019-01-13T20:30:27.837Z,2.17
2019-01-13T20:32:55.292Z,2.07
2019-01-13T20:35:22.641Z,2.30
2019-01-13T20:37:49.965Z,2.10
2019-01-13T20:40:17.773Z,2.30
2019-01-13T20:42:45.196Z,2.40
2019-01-13T20:45:16.093Z,2.60
2019-01-13T20:47:43.380Z,2.07
2019-01-13T20:50:12.465Z,2.27
2019-01-13T20:52:40.281Z,2.70
2019-01-13T20:55:08.277Z,2.37
2019-01-13T20:57:36.237Z,3.07
2019-01-13T21:00:06.189Z,3.07
2019-01-13T21:02:33.661Z,2.33
2019-01-13T21:05:01.033Z,2.47
2019-01-13T21:07:29.118Z,2.20
2019-01-13T21:09:56.288Z,2.30
2019-01-13T21:12:23.739Z,2.43
2019-01-13T21:14:51.680Z,1.90
2019-01-13T21:17:21.299Z,1.90
2019-01-13T21:19:50.457Z,1.90
2019-01-13T21:22:19.732Z,1.50
2019-01-13T21:24:47.569Z,1.83
2019-01-13T21:27:15.135Z,1.50
2019-01-13T21:29:42.580Z,1.50
2019-01-13T21:32:09.785Z,1.80
2019-01-13T21:34:36.960Z,1.60
2019-01-13T21:37:04.760Z,1.90
2019-01-13T21:39:32.272Z,1.90
2019-01-13T21:42:01.377Z,1.50
2019-01-13T21:44:28.562Z,1.40
2019-01-13T21:46:56.001Z,1.40
2019-01-13T21:49:24.356Z,1.60
2019-01-13T21:51:51.616Z,1.30
2019-01-13T21:54:19.316Z,1.40
2019-01-13T21:56:48.312Z,1.30
2019-01-13T21:59:15.565Z,1.40
2019-01-13T22:01:42.745Z,1.40
2019-01-13T22:04:10.220Z,1.37
2019-01-13T22:06:38.593Z,1.57
2019-01-13T22:09:10.369Z,1.30
2019-01-13T22:11:37.406Z,1.60
2019-01-13T22:14:05.320Z,1.40
2019-01-13T22:16:32.580Z,1.67
2019-01-13T22:19:00.185Z,1.60
2019-01-13T22:21:27.395Z,1.50
2019-01-13T22:23:54.949Z,1.50
2019-01-13T22:26:22.623Z,1.73
2019-01-13T22:28:50.113Z,1.73
2019-01-13T22:31:22.295Z,1.60
2019-01-13T22:33:47.656Z,1.40
2019-01-13T22:36:14.857Z,1.40
2019-01-13T22:38:42.020Z,1.30
2019-01-13T22:41:09.541Z,1.27
2019-01-13T22:43:37.076Z,1.10
2019-01-13T22:46:04.449Z,1.30
2019-01-13T22:48:33.092Z,1.20
2019-01-13T22:51:00.360Z,1.40
2019-01-13T22:53:29.906Z,1.77
2019-01-13T22:55:57.378Z,1.23
2019-01-13T22:58:24.424Z,1.50
2019-01-13T23:01:28.512Z,1.40
2019-01-13T23:04:00.148Z,1.43
2019-01-13T23:06:29.817Z,1.30
2019-01-13T23:08:56.883Z,1.40
2019-01-13T23:11:24.452Z,1.60
2019-01-13T23:13:52.346Z,1.87
2019-01-13T23:16:19.538Z,1.40
2019-01-13T23:18:46.553Z,1.10
2019-01-13T23:21:13.988Z,2.40
2019-01-13T23:23:40.932Z,1.20
2019-01-13T23:26:10.456Z,1.17
2019-01-13T23:28:38.120Z,1.20
2019-01-13T23:31:05.372Z,1.70
2019-01-13T23:33:32.716Z,1.30
2019-01-13T23:36:02.855Z,1.60
2019-01-13T23:38:28.808Z,1.70
2019-01-13T23:40:57.041Z,1.60
2019-01-13T23:43:24.481Z,1.30
2019-01-13T23:45:51.648Z,1.73
2019-01-13T23:48:19.488Z,1.70
2019-01-13T23:50:46.912Z,1.90
2019-01-13T23:53:14.197Z,1.70
2019-01-13T23:55:41.478Z,2.40
2019-01-13T23:58:08.868Z,1.97
